Time;durP1;ratioP1;P1;durP2;ratioP2;P2;SDS_P1;SDS_P2;PMS_P1;PMS_P2;Temp;Humidity;BMP_temperature;BMP_pressure;BME280_temperature;BME280_humidity;BME280_pressure;Samples;Min_cycle;Max_cycle;Signal;HPM_P1;HPM_P2
2022/12/22 03:25:55;;;;;;;11.80;7.47;;;;;;;;;;5101272;28;20324;-83
2022/12/22 03:28:22;;;;;;;9.43;7.73;;;;;;;;;;5100648;27;20207;-84
2022/12/22 03:30:56;;;;;;;10.23;6.73;;;;;;;;;;5112727;28;20214;-84
2022/12/22 03:33:24;;;;;;;9.23;6.70;;;;;;;;;;5100544;28;20269;-84
2022/12/22 03:35:51;;;;;;;9.97;8.30;;;;;;;;;;5114045;28;20203;-83
2022/12/22 03:38:18;;;;;;;13.20;8.67;;;;;;;;;;5100332;28;20232;-84
2022/12/22 03:40:45;;;;;;;7.43;6.60;;;;;;;;;;5104469;28;20678;-84
2022/12/22 03:48:42;;;;;;;9.47;7.73;;;;;;;;;;5113766;28;20340;-84
2022/12/22 03:51:09;;;;;;;14.07;9.10;;;;;;;;;;5113426;28;20734;-85
2022/12/22 03:53:36;;;;;;;10.07;7.13;;;;;;;;;;5113775;28;20211;-84
2022/12/22 03:56:03;;;;;;;8.23;5.83;;;;;;;;;;5113309;28;20199;-84
2022/12/22 03:58:30;;;;;;;10.53;7.27;;;;;;;;;;5113863;28;20210;-84
2022/12/22 04:01:05;;;;;;;12.87;9.13;;;;;;;;;;5099700;28;20212;-84
2022/12/22 04:03:32;;;;;;;9.87;8.13;;;;;;;;;;5102904;28;20597;-84
2022/12/22 04:06:00;;;;;;;10.67;8.10;;;;;;;;;;5106634;28;20196;-84
2022/12/22 04:08:26;;;;;;;6.27;5.57;;;;;;;;;;5104418;28;20275;-84
2022/12/22 04:13:38;;;;;;;4.37;3.63;;;;;;;;;;5113047;28;20214;-84
2022/12/22 04:16:06;;;;;;;4.57;4.17;;;;;;;;;;5099406;28;20260;-84
2022/12/22 04:18:32;;;;;;;3.70;3.30;;;;;;;;;;5113338;28;20211;-84
2022/12/22 04:21:00;;;;;;;6.27;5.10;;;;;;;;;;5112807;28;20200;-84
2022/12/22 04:23:27;;;;;;;3.87;3.43;;;;;;;;;;5099419;28;20293;-84
2022/12/22 04:25:54;;;;;;;9.40;6.13;;;;;;;;;;5099723;28;20253;-83
2022/12/22 04:28:21;;;;;;;7.33;5.60;;;;;;;;;;5112541;28;20767;-83
2022/12/22 04:30:49;;;;;;;7.03;4.77;;;;;;;;;;5112825;28;20211;-83
2022/12/22 04:33:17;;;;;;;8.40;5.70;;;;;;;;;;5112811;28;20196;-84
2022/12/22 04:35:43;;;;;;;5.77;5.07;;;;;;;;;;5113240;28;20256;-84
2022/12/22 04:38:11;;;;;;;10.10;7.67;;;;;;;;;;5099150;28;20204;-83
2022/12/22 04:40:38;;;;;;;6.90;5.37;;;;;;;;;;5112037;28;20666;-83
2022/12/22 04:43:05;;;;;;;8.67;6.47;;;;;;;;;;5112475;28;20756;-83
2022/12/22 04:45:32;;;;;;;10.63;7.13;;;;;;;;;;5104047;28;20366;-84
2022/12/22 04:47:59;;;;;;;7.07;6.03;;;;;;;;;;5093967;28;20219;-83
2022/12/22 04:50:25;;;;;;;8.30;7.50;;;;;;;;;;5112301;28;20203;-83
2022/12/22 04:52:52;;;;;;;9.40;7.57;;;;;;;;;;5110522;28;20254;-84
2022/12/22 04:55:20;;;;;;;8.20;7.13;;;;;;;;;;5101289;28;20701;-83
2022/12/22 04:57:47;;;;;;;9.63;6.70;;;;;;;;;;5098780;28;20655;-84
2022/12/22 05:00:15;;;;;;;12.23;8.93;;;;;;;;;;5112062;28;20252;-84
2022/12/22 05:02:41;;;;;;;7.53;6.17;;;;;;;;;;5112335;28;20286;-83
2022/12/22 05:05:09;;;;;;;10.77;7.63;;;;;;;;;;5112133;27;20268;-84
2022/12/22 05:07:36;;;;;;;17.40;10.37;;;;;;;;;;5114307;27;20656;-84
2022/12/22 05:10:06;;;;;;;16.60;12.03;;;;;;;;;;5111994;28;20291;-84
2022/12/22 05:15:19;;;;;;;20.93;11.03;;;;;;;;;;5104207;28;20234;-83
2022/12/22 05:17:46;;;;;;;11.77;9.23;;;;;;;;;;5105068;28;20265;-84
2022/12/22 05:20:14;;;;;;;14.67;9.33;;;;;;;;;;5105463;28;20207;-83
2022/12/22 05:22:41;;;;;;;16.53;11.73;;;;;;;;;;5112214;28;20223;-83
2022/12/22 05:25:08;;;;;;;17.00;9.07;;;;;;;;;;5097740;28;20204;-85
2022/12/22 05:27:37;;;;;;;12.27;8.53;;;;;;;;;;5091550;28;20212;-84
2022/12/22 05:30:04;;;;;;;33.83;16.97;;;;;;;;;;5105832;28;20211;-85
2022/12/22 05:32:33;;;;;;;16.07;13.10;;;;;;;;;;5111701;28;20211;-85
2022/12/22 05:34:59;;;;;;;37.87;21.43;;;;;;;;;;5111511;28;20272;-85
2022/12/22 05:37:26;;;;;;;33.83;20.80;;;;;;;;;;5111519;28;20673;-85
2022/12/22 05:39:53;;;;;;;32.03;20.80;;;;;;;;;;5111399;28;20207;-85
2022/12/22 05:42:34;;;;;;;17.47;11.27;;;;;;;;;;5106283;28;20200;-85
2022/12/22 05:45:06;;;;;;;18.17;10.20;;;;;;;;;;5105969;28;20191;-85
2022/12/22 05:47:33;;;;;;;9.47;5.83;;;;;;;;;;5111230;28;20643;-85
2022/12/22 05:50:00;;;;;;;7.87;5.10;;;;;;;;;;5106166;28;20212;-82
2022/12/22 05:52:27;;;;;;;6.90;5.20;;;;;;;;;;5110344;28;20340;-84
2022/12/22 05:54:54;;;;;;;8.03;5.83;;;;;;;;;;5103873;28;21001;-85
2022/12/22 05:57:23;;;;;;;6.33;4.93;;;;;;;;;;5100222;28;20203;-84
2022/12/22 05:59:50;;;;;;;7.53;5.60;;;;;;;;;;5111405;28;20203;-84
2022/12/22 06:02:18;;;;;;;5.97;5.13;;;;;;;;;;5111237;28;20200;-85
2022/12/22 06:04:45;;;;;;;7.73;5.60;;;;;;;;;;5111116;28;20234;-84
2022/12/22 06:07:11;;;;;;;4.43;4.00;;;;;;;;;;5111200;28;20207;-84
2022/12/22 06:09:38;;;;;;;6.67;4.07;;;;;;;;;;5111661;28;20260;-84
2022/12/22 06:12:06;;;;;;;6.17;4.80;;;;;;;;;;5111291;28;20645;-85
2022/12/22 06:14:33;;;;;;;4.73;4.33;;;;;;;;;;5110735;28;20234;-86
2022/12/22 06:17:00;;;;;;;13.30;10.57;;;;;;;;;;5110898;28;20249;-85
2022/12/22 06:19:28;;;;;;;39.57;33.33;;;;;;;;;;5110727;28;20722;-85
2022/12/22 06:21:55;;;;;;;33.10;29.57;;;;;;;;;;5109700;28;20257;-86
2022/12/22 06:24:21;;;;;;;33.63;24.73;;;;;;;;;;5098889;28;20280;-85
2022/12/22 06:26:48;;;;;;;23.37;17.33;;;;;;;;;;5109798;28;20199;-84
2022/12/22 06:29:15;;;;;;;17.93;13.97;;;;;;;;;;5098849;28;20906;-85
2022/12/22 06:31:42;;;;;;;21.90;16.47;;;;;;;;;;5110882;28;20257;-85
2022/12/22 06:34:09;;;;;;;25.90;17.67;;;;;;;;;;5111088;28;20199;-86
2022/12/22 06:36:38;;;;;;;30.50;22.30;;;;;;;;;;5109177;28;20207;-86
2022/12/22 06:39:05;;;;;;;32.10;20.77;;;;;;;;;;5100012;28;20290;-87
2022/12/22 06:44:17;;;;;;;21.60;16.00;;;;;;;;;;5099305;28;20720;-87
2022/12/22 06:46:44;;;;;;;24.70;17.83;;;;;;;;;;5108896;28;20264;-86
2022/12/22 06:49:11;;;;;;;12.47;10.13;;;;;;;;;;5111217;28;20200;-87
2022/12/22 06:51:39;;;;;;;7.63;6.40;;;;;;;;;;5105898;28;20200;-85
2022/12/22 06:54:06;;;;;;;10.17;5.93;;;;;;;;;;5102662;28;20268;-85
2022/12/22 06:56:32;;;;;;;9.43;7.67;;;;;;;;;;5103797;28;20543;-85
2022/12/22 06:58:59;;;;;;;12.67;9.83;;;;;;;;;;5098324;28;20572;-86
2022/12/22 07:01:26;;;;;;;15.27;10.23;;;;;;;;;;5109603;28;20983;-90
2022/12/22 07:03:53;;;;;;;20.77;14.37;;;;;;;;;;5112055;28;20227;-85
2022/12/22 07:06:19;;;;;;;21.90;15.37;;;;;;;;;;5114244;28;20199;-85
2022/12/22 07:08:48;;;;;;;15.57;12.07;;;;;;;;;;5114298;28;20200;-86
2022/12/22 07:11:15;;;;;;;15.43;10.93;;;;;;;;;;5094190;28;20669;-86
2022/12/22 07:13:42;;;;;;;14.47;11.07;;;;;;;;;;5107339;28;20567;-86
2022/12/22 07:16:10;;;;;;;16.37;12.17;;;;;;;;;;5114673;28;20635;-85
2022/12/22 07:18:38;;;;;;;25.73;19.30;;;;;;;;;;5100665;28;20281;-87
2022/12/22 07:21:07;;;;;;;20.73;15.97;;;;;;;;;;5114610;28;20253;-87
2022/12/22 07:23:34;;;;;;;19.60;16.07;;;;;;;;;;5114043;28;20280;-87
2022/12/22 07:26:03;;;;;;;19.03;13.70;;;;;;;;;;5114305;28;20211;-88
2022/12/22 07:28:32;;;;;;;13.67;10.20;;;;;;;;;;5114440;28;20643;-89
2022/12/22 07:30:59;;;;;;;20.53;13.60;;;;;;;;;;5114586;28;20207;-89
2022/12/22 07:33:26;;;;;;;17.83;12.90;;;;;;;;;;5114993;28;20199;-88
2022/12/22 07:36:04;;;;;;;17.83;12.50;;;;;;;;;;5114652;28;20207;-87
2022/12/22 07:38:35;;;;;;;13.37;10.03;;;;;;;;;;5114269;28;20203;-89
2022/12/22 07:41:03;;;;;;;19.30;15.23;;;;;;;;;;5113977;28;20206;-87
2022/12/22 07:43:29;;;;;;;20.87;15.07;;;;;;;;;;5114090;28;20277;-88
2022/12/22 07:45:56;;;;;;;17.03;13.60;;;;;;;;;;5114399;28;20211;-87
2022/12/22 07:51:07;;;;;;;16.20;10.63;;;;;;;;;;5107780;28;20217;-87
2022/12/22 07:53:34;;;;;;;24.77;17.87;;;;;;;;;;5113911;28;20215;-87
2022/12/22 07:56:06;;;;;;;23.57;18.53;;;;;;;;;;5100244;28;20212;-88
2022/12/22 07:58:33;;;;;;;22.00;16.63;;;;;;;;;;5114454;28;20207;-86
2022/12/22 08:01:00;;;;;;;19.40;15.63;;;;;;;;;;5113928;28;20207;-88
2022/12/22 08:03:27;;;;;;;14.30;12.03;;;;;;;;;;5104985;28;20277;-87
2022/12/22 08:05:54;;;;;;;12.63;10.00;;;;;;;;;;5109350;28;20207;-88
2022/12/22 08:08:21;;;;;;;11.30;7.43;;;;;;;;;;5104615;28;20619;-87
2022/12/22 08:10:48;;;;;;;10.47;7.07;;;;;;;;;;5095763;28;20262;-89
2022/12/22 08:13:16;;;;;;;8.10;6.10;;;;;;;;;;5113393;28;20267;-88
2022/12/22 08:15:43;;;;;;;7.63;4.13;;;;;;;;;;5112931;28;20231;-87
2022/12/22 08:18:09;;;;;;;11.20;5.87;;;;;;;;;;5103727;28;20215;-87
2022/12/22 08:20:36;;;;;;;11.87;9.07;;;;;;;;;;5106337;28;20683;-87
2022/12/22 08:23:03;;;;;;;11.20;8.27;;;;;;;;;;5104012;28;20609;-88
2022/12/22 08:25:31;;;;;;;42.17;23.53;;;;;;;;;;5114074;28;20712;-88
2022/12/22 08:27:58;;;;;;;13.87;10.37;;;;;;;;;;5113048;28;20273;-88
2022/12/22 08:30:26;;;;;;;10.77;9.40;;;;;;;;;;5113268;28;20207;-86
2022/12/22 08:32:53;;;;;;;8.07;6.70;;;;;;;;;;5101983;28;20679;-87
2022/12/22 08:35:20;;;;;;;10.03;7.40;;;;;;;;;;5106248;28;20586;-86
2022/12/22 08:37:47;;;;;;;10.10;7.30;;;;;;;;;;5104764;28;20265;-85
2022/12/22 08:40:20;;;;;;;7.43;6.30;;;;;;;;;;5112564;28;20565;-86
2022/12/22 08:42:48;;;;;;;22.50;14.40;;;;;;;;;;5100188;28;20239;-85
2022/12/22 08:45:14;;;;;;;39.07;20.10;;;;;;;;;;5112398;28;20225;-85
2022/12/22 08:47:42;;;;;;;27.30;14.63;;;;;;;;;;5112773;28;20195;-86
2022/12/22 08:50:10;;;;;;;35.67;20.97;;;;;;;;;;5112249;28;20191;-85
2022/12/22 08:52:37;;;;;;;18.13;12.17;;;;;;;;;;5098761;28;20193;-86
2022/12/22 08:55:04;;;;;;;14.57;8.33;;;;;;;;;;5112855;28;20269;-86
2022/12/22 08:57:31;;;;;;;41.87;28.10;;;;;;;;;;5098236;28;20212;-87
2022/12/22 08:59:58;;;;;;;31.90;19.00;;;;;;;;;;5099790;28;20261;-86
2022/12/22 09:02:25;;;;;;;26.37;15.33;;;;;;;;;;5112839;28;20253;-86
2022/12/22 09:04:53;;;;;;;31.20;18.23;;;;;;;;;;5112329;28;20223;-87
2022/12/22 09:07:19;;;;;;;49.30;28.13;;;;;;;;;;5110660;28;20739;-87
2022/12/22 09:09:46;;;;;;;14.87;10.30;;;;;;;;;;5100231;28;20272;-86
2022/12/22 09:12:13;;;;;;;22.77;15.63;;;;;;;;;;5112277;28;20734;-85
2022/12/22 09:14:40;;;;;;;15.43;11.17;;;;;;;;;;5112309;28;20235;-88
2022/12/22 09:17:07;;;;;;;16.17;11.13;;;;;;;;;;5110613;28;20623;-86
2022/12/22 09:19:34;;;;;;;17.63;11.97;;;;;;;;;;5100210;28;20208;-87
2022/12/22 09:22:02;;;;;;;18.20;11.23;;;;;;;;;;5112184;28;20212;-89
2022/12/22 09:24:29;;;;;;;30.47;22.83;;;;;;;;;;5112087;28;20709;-86
2022/12/22 09:26:56;;;;;;;9.83;7.40;;;;;;;;;;5111946;28;20595;-87
2022/12/22 09:29:22;;;;;;;9.40;7.00;;;;;;;;;;5111293;28;20207;-85
2022/12/22 09:31:49;;;;;;;8.57;5.33;;;;;;;;;;5106834;28;20211;-86
2022/12/22 09:34:16;;;;;;;12.23;7.67;;;;;;;;;;5112116;28;20582;-86
2022/12/22 09:36:43;;;;;;;26.67;15.83;;;;;;;;;;5111782;28;20219;-86
2022/12/22 09:39:11;;;;;;;7.03;6.23;;;;;;;;;;5111821;28;20264;-86
2022/12/22 09:41:43;;;;;;;8.00;5.43;;;;;;;;;;5098261;28;20207;-85
2022/12/22 09:44:15;;;;;;;5.70;5.07;;;;;;;;;;5100967;28;20228;-86
2022/12/22 09:46:42;;;;;;;9.47;6.23;;;;;;;;;;5110174;28;20659;-86
2022/12/22 09:49:12;;;;;;;9.33;6.23;;;;;;;;;;5111987;28;20214;-87
2022/12/22 09:51:41;;;;;;;11.73;7.50;;;;;;;;;;5111675;28;20219;-86
2022/12/22 09:54:10;;;;;;;8.37;6.80;;;;;;;;;;5111837;28;20203;-86
2022/12/22 09:56:39;;;;;;;8.10;6.13;;;;;;;;;;5097661;28;20203;-86
2022/12/22 09:59:10;;;;;;;9.13;6.23;;;;;;;;;;5111883;28;20207;-87
2022/12/22 10:01:57;;;;;;;7.97;5.83;;;;;;;;;;5098911;28;20257;-85
2022/12/22 10:04:34;;;;;;;15.67;7.93;;;;;;;;;;5111308;28;20709;-86
2022/12/22 10:07:05;;;;;;;7.97;6.03;;;;;;;;;;5099210;28;20199;-87
2022/12/22 10:09:32;;;;;;;8.30;6.10;;;;;;;;;;5111139;28;20203;-86
2022/12/22 10:12:02;;;;;;;10.33;6.43;;;;;;;;;;5112051;28;20276;-86
2022/12/22 10:14:36;;;;;;;8.00;6.67;;;;;;;;;;5104949;28;20726;-87
2022/12/22 10:17:18;;;;;;;6.37;5.77;;;;;;;;;;5105726;28;20709;-87
2022/12/22 10:19:46;;;;;;;8.63;5.63;;;;;;;;;;5111469;28;20200;-86
2022/12/22 10:22:22;;;;;;;7.37;6.37;;;;;;;;;;5111578;28;20252;-87
2022/12/22 10:24:48;;;;;;;8.63;6.63;;;;;;;;;;5099459;28;20733;-86
2022/12/22 10:27:17;;;;;;;7.47;5.53;;;;;;;;;;5109580;28;20204;-87
2022/12/22 10:29:44;;;;;;;10.27;6.70;;;;;;;;;;5111324;28;20261;-87
2022/12/22 10:32:13;;;;;;;12.57;9.57;;;;;;;;;;5111572;28;20268;-87
2022/12/22 10:34:59;;;;;;;9.83;6.93;;;;;;;;;;5111537;28;20207;-87
2022/12/22 10:37:31;;;;;;;36.20;19.60;;;;;;;;;;5099944;28;20237;-87
2022/12/22 10:39:58;;;;;;;13.17;9.57;;;;;;;;;;5113786;28;20212;-87
2022/12/22 10:42:26;;;;;;;24.93;16.73;;;;;;;;;;5115276;27;20200;-86
2022/12/22 10:44:53;;;;;;;28.40;19.03;;;;;;;;;;5115017;27;20234;-87
2022/12/22 10:47:24;;;;;;;12.57;8.03;;;;;;;;;;5115435;28;20237;-86
2022/12/22 10:49:52;;;;;;;14.63;10.60;;;;;;;;;;5114673;28;20199;-86
2022/12/22 10:52:21;;;;;;;9.57;6.87;;;;;;;;;;5115407;28;20272;-87
2022/12/22 10:54:48;;;;;;;21.83;13.47;;;;;;;;;;5114430;28;20204;-86
2022/12/22 10:57:28;;;;;;;19.00;12.93;;;;;;;;;;5114713;28;20689;-87
2022/12/22 10:59:57;;;;;;;10.23;9.07;;;;;;;;;;5101161;28;20208;-86
2022/12/22 11:02:29;;;;;;;12.73;8.97;;;;;;;;;;5114588;28;20207;-84
2022/12/22 11:05:02;;;;;;;16.63;9.13;;;;;;;;;;5106049;28;20297;-86
2022/12/22 11:07:31;;;;;;;11.13;7.27;;;;;;;;;;5110618;28;20694;-86
2022/12/22 11:09:58;;;;;;;11.83;7.47;;;;;;;;;;5114210;28;20294;-86
2022/12/22 11:12:34;;;;;;;17.20;9.83;;;;;;;;;;5114385;28;20203;-86
2022/12/22 11:15:04;;;;;;;11.40;8.33;;;;;;;;;;5114268;28;20227;-85
2022/12/22 11:17:37;;;;;;;16.33;10.27;;;;;;;;;;5114224;28;20214;-86
2022/12/22 11:20:30;;;;;;;12.40;9.97;;;;;;;;;;5102123;28;20640;-85
2022/12/22 11:23:03;;;;;;;16.97;11.30;;;;;;;;;;5103143;28;20674;-85
2022/12/22 11:25:38;;;;;;;14.87;12.27;;;;;;;;;;5114408;28;20226;-85
2022/12/22 11:28:19;;;;;;;27.53;13.63;;;;;;;;;;5113853;28;20210;-86
2022/12/22 11:30:54;;;;;;;14.67;11.93;;;;;;;;;;5114168;28;20658;-86
2022/12/22 11:33:31;;;;;;;16.43;12.53;;;;;;;;;;5114296;28;20664;-85
2022/12/22 11:36:03;;;;;;;19.43;12.63;;;;;;;;;;5113694;28;20203;-85
2022/12/22 11:38:40;;;;;;;14.43;8.83;;;;;;;;;;5114053;28;20272;-86
2022/12/22 11:41:15;;;;;;;15.13;12.93;;;;;;;;;;5113728;28;20207;-86
2022/12/22 11:43:53;;;;;;;12.90;9.40;;;;;;;;;;5100528;28;20222;-86
2022/12/22 11:46:26;;;;;;;13.63;12.13;;;;;;;;;;5114004;28;20281;-85
2022/12/22 11:49:08;;;;;;;14.67;10.47;;;;;;;;;;5113407;28;20199;-85
2022/12/22 11:51:50;;;;;;;11.83;8.97;;;;;;;;;;5112602;28;20202;-86
2022/12/22 11:54:40;;;;;;;17.63;13.70;;;;;;;;;;5113433;28;20751;-86
2022/12/22 11:57:15;;;;;;;13.57;11.20;;;;;;;;;;5113807;28;20211;-85
2022/12/22 11:59:49;;;;;;;12.33;9.80;;;;;;;;;;5113194;28;20259;-85
2022/12/22 12:03:06;;;;;;;15.60;10.47;;;;;;;;;;5113325;28;20200;-84
2022/12/22 12:05:41;;;;;;;13.13;9.13;;;;;;;;;;5112738;28;20280;-85
2022/12/22 12:08:16;;;;;;;12.40;8.47;;;;;;;;;;5095080;28;20275;-85
2022/12/22 12:10:49;;;;;;;11.63;9.30;;;;;;;;;;5113072;28;20213;-85
2022/12/22 12:13:22;;;;;;;17.00;10.83;;;;;;;;;;5113508;27;20290;-85
2022/12/22 12:15:54;;;;;;;37.40;18.90;;;;;;;;;;5112984;28;20591;-85
2022/12/22 12:18:36;;;;;;;25.67;16.30;;;;;;;;;;5113435;28;20214;-84
2022/12/22 12:21:17;;;;;;;20.53;13.27;;;;;;;;;;5113439;28;20199;-85
2022/12/22 12:23:56;;;;;;;18.27;11.70;;;;;;;;;;5113106;28;20286;-85
2022/12/22 12:26:24;;;;;;;12.53;9.90;;;;;;;;;;5112165;28;20222;-86
2022/12/22 12:28:59;;;;;;;14.73;11.20;;;;;;;;;;5098988;28;20253;-85
2022/12/22 12:31:32;;;;;;;9.20;8.00;;;;;;;;;;5112549;28;20256;-85
2022/12/22 12:34:00;;;;;;;9.70;8.43;;;;;;;;;;5112845;28;20738;-85
2022/12/22 12:36:30;;;;;;;15.97;9.93;;;;;;;;;;5112762;28;20276;-85
2022/12/22 12:39:02;;;;;;;13.73;8.77;;;;;;;;;;5112470;28;20718;-85
2022/12/22 12:41:35;;;;;;;16.00;8.57;;;;;;;;;;5099052;28;20287;-85
2022/12/22 12:44:05;;;;;;;9.27;8.30;;;;;;;;;;5112871;28;20276;-85
2022/12/22 12:46:55;;;;;;;8.97;7.20;;;;;;;;;;5112267;28;20254;-84
2022/12/22 12:50:02;;;;;;;10.40;7.67;;;;;;;;;;5098730;28;20272;-86
2022/12/22 12:53:17;;;;;;;11.97;7.63;;;;;;;;;;5099499;28;20643;-84
2022/12/22 12:56:01;;;;;;;7.37;6.60;;;;;;;;;;5104532;28;20249;-84
2022/12/22 12:58:51;;;;;;;9.57;7.33;;;;;;;;;;5100187;28;20673;-84
2022/12/22 13:01:57;;;;;;;14.63;10.23;;;;;;;;;;5111586;28;20578;-84
2022/12/22 13:05:10;;;;;;;11.83;7.80;;;;;;;;;;5112037;28;20263;-84
2022/12/22 13:08:08;;;;;;;8.93;6.93;;;;;;;;;;5111909;28;20766;-83
2022/12/22 13:10:36;;;;;;;8.07;6.43;;;;;;;;;;5111739;28;20256;-85
2022/12/22 13:13:03;;;;;;;16.70;12.73;;;;;;;;;;5111871;28;20203;-85
2022/12/22 13:15:32;;;;;;;16.37;10.07;;;;;;;;;;5111902;28;20307;-84
2022/12/22 13:17:59;;;;;;;13.17;9.77;;;;;;;;;;5111748;28;20203;-84
2022/12/22 13:20:27;;;;;;;16.87;10.47;;;;;;;;;;5111748;28;20203;-85
2022/12/22 13:22:56;;;;;;;10.10;6.90;;;;;;;;;;5103099;28;20212;-86
2022/12/22 13:25:24;;;;;;;8.43;6.73;;;;;;;;;;5107600;28;20231;-84
2022/12/22 13:27:51;;;;;;;9.67;6.10;;;;;;;;;;5101985;28;20219;-84
2022/12/22 13:30:20;;;;;;;14.93;9.63;;;;;;;;;;5104566;28;20230;-85
2022/12/22 13:32:49;;;;;;;12.67;9.10;;;;;;;;;;5091753;28;20340;-84
2022/12/22 13:35:20;;;;;;;11.17;9.13;;;;;;;;;;5095044;28;20750;-85
2022/12/22 13:37:49;;;;;;;11.30;7.30;;;;;;;;;;5111871;28;20192;-85
2022/12/22 13:40:20;;;;;;;7.50;5.73;;;;;;;;;;5111681;28;20192;-85
2022/12/22 13:42:50;;;;;;;11.57;8.97;;;;;;;;;;5111669;28;20238;-85
2022/12/22 13:45:30;;;;;;;8.73;6.93;;;;;;;;;;5091590;28;20277;-85
2022/12/22 13:47:56;;;;;;;8.43;6.30;;;;;;;;;;5106546;28;20238;-85
2022/12/22 13:50:26;;;;;;;12.83;9.30;;;;;;;;;;5111642;28;20712;-85
2022/12/22 13:52:54;;;;;;;24.83;19.73;;;;;;;;;;5111291;28;20207;-85
2022/12/22 13:55:28;;;;;;;31.03;23.23;;;;;;;;;;5111339;28;20200;-85
2022/12/22 13:57:57;;;;;;;19.70;14.70;;;;;;;;;;5111477;28;20229;-87
2022/12/22 14:00:26;;;;;;;21.70;16.10;;;;;;;;;;5111142;28;20211;-85
2022/12/22 14:02:53;;;;;;;42.57;30.73;;;;;;;;;;5111883;28;20250;-86
2022/12/22 14:05:20;;;;;;;20.60;15.33;;;;;;;;;;5098639;28;20227;-85
2022/12/22 14:08:01;;;;;;;37.20;26.20;;;;;;;;;;5110663;28;20215;-86
2022/12/22 14:10:35;;;;;;;19.10;16.00;;;;;;;;;;5110930;28;20211;-86
2022/12/22 14:13:12;;;;;;;20.80;16.57;;;;;;;;;;5111396;28;20583;-85
2022/12/22 14:15:39;;;;;;;34.83;23.70;;;;;;;;;;5116044;28;20251;-86
2022/12/22 14:18:06;;;;;;;32.83;24.50;;;;;;;;;;5115431;28;20253;-86
2022/12/22 14:20:35;;;;;;;25.57;19.13;;;;;;;;;;5115616;28;20195;-86
2022/12/22 14:23:04;;;;;;;16.70;11.93;;;;;;;;;;5115049;28;20742;-86
2022/12/22 14:25:33;;;;;;;9.93;8.43;;;;;;;;;;5115302;28;20231;-85
2022/12/22 14:28:00;;;;;;;14.00;11.43;;;;;;;;;;5115196;28;20268;-85
2022/12/22 14:30:31;;;;;;;20.10;16.57;;;;;;;;;;5114458;28;20682;-86
2022/12/22 14:33:15;;;;;;;15.30;12.10;;;;;;;;;;5115323;28;20211;-86
2022/12/22 14:35:42;;;;;;;14.47;11.90;;;;;;;;;;5105223;28;20331;-87
2022/12/22 14:38:18;;;;;;;27.67;17.33;;;;;;;;;;5115097;28;20260;-87
2022/12/22 14:40:45;;;;;;;17.07;15.27;;;;;;;;;;5115083;28;20666;-86
2022/12/22 14:43:24;;;;;;;26.20;17.57;;;;;;;;;;5115354;28;20689;-87
2022/12/22 14:46:01;;;;;;;33.30;22.53;;;;;;;;;;5114814;28;20211;-85
2022/12/22 14:48:31;;;;;;;23.50;16.40;;;;;;;;;;5115002;28;20207;-86
2022/12/22 14:50:58;;;;;;;13.97;11.73;;;;;;;;;;5114821;28;20200;-86
2022/12/22 14:53:26;;;;;;;14.13;11.03;;;;;;;;;;5115245;28;20230;-86
2022/12/22 14:55:53;;;;;;;19.63;14.67;;;;;;;;;;5101424;28;20257;-86
2022/12/22 14:58:25;;;;;;;15.03;12.20;;;;;;;;;;5101547;28;20222;-86
2022/12/22 15:01:15;;;;;;;17.17;11.47;;;;;;;;;;5113999;27;20211;-87
2022/12/22 15:03:43;;;;;;;14.87;12.47;;;;;;;;;;5105823;28;20228;-87
2022/12/22 15:06:24;;;;;;;21.03;13.87;;;;;;;;;;5114505;28;20279;-87
2022/12/22 15:08:52;;;;;;;100.77;45.23;;;;;;;;;;5101033;28;20218;-86
2022/12/22 15:11:20;;;;;;;19.80;14.23;;;;;;;;;;5114471;28;20203;-86
2022/12/22 15:13:48;;;;;;;11.37;9.23;;;;;;;;;;5114387;28;20607;-86
2022/12/22 15:16:20;;;;;;;12.57;8.57;;;;;;;;;;5114089;28;20204;-86
2022/12/22 15:18:47;;;;;;;16.93;10.37;;;;;;;;;;5114233;28;20230;-86
2022/12/22 15:21:15;;;;;;;11.97;9.20;;;;;;;;;;5114331;28;20199;-87
2022/12/22 15:23:42;;;;;;;14.43;9.83;;;;;;;;;;5113940;28;20632;-87
2022/12/22 15:26:10;;;;;;;15.70;10.90;;;;;;;;;;5114108;28;20207;-89
2022/12/22 15:28:37;;;;;;;14.23;11.23;;;;;;;;;;5111941;28;20214;-86
2022/12/22 15:31:06;;;;;;;17.00;11.00;;;;;;;;;;5103652;28;20282;-86
2022/12/22 15:33:34;;;;;;;17.53;11.20;;;;;;;;;;5113938;28;20268;-85
2022/12/22 15:36:02;;;;;;;18.43;10.93;;;;;;;;;;5113827;28;20212;-87
2022/12/22 15:38:29;;;;;;;11.93;8.73;;;;;;;;;;5114348;28;20601;-86
2022/12/22 15:40:55;;;;;;;13.67;10.37;;;;;;;;;;5113850;28;20200;-86
2022/12/22 15:43:25;;;;;;;26.53;20.00;;;;;;;;;;5113938;28;20203;-87
2022/12/22 15:45:52;;;;;;;46.07;40.93;;;;;;;;;;5113803;28;20227;-86
2022/12/22 15:48:24;;;;;;;31.20;24.27;;;;;;;;;;5100985;28;20207;-85
2022/12/22 15:50:53;;;;;;;29.30;22.93;;;;;;;;;;5113682;28;20211;-86
2022/12/22 15:53:27;;;;;;;32.70;23.97;;;;;;;;;;5100249;28;20252;-86
2022/12/22 15:55:57;;;;;;;22.00;16.70;;;;;;;;;;5113649;28;20208;-86
2022/12/22 15:58:27;;;;;;;14.83;12.53;;;;;;;;;;5105104;28;20214;-86
2022/12/22 16:00:54;;;;;;;35.77;19.33;;;;;;;;;;5096579;28;20209;-88
2022/12/22 16:03:21;;;;;;;39.00;24.70;;;;;;;;;;5113180;28;20244;-87
2022/12/22 16:05:48;;;;;;;51.17;33.33;;;;;;;;;;5099985;28;20694;-86
2022/12/22 16:08:18;;;;;;;19.63;13.13;;;;;;;;;;5113187;28;20260;-87
2022/12/22 16:10:45;;;;;;;24.03;18.27;;;;;;;;;;5113417;28;20215;-87
2022/12/22 16:13:14;;;;;;;30.23;20.43;;;;;;;;;;5113465;28;20199;-87
2022/12/22 16:15:41;;;;;;;32.13;21.13;;;;;;;;;;5113546;28;20231;-89
2022/12/22 16:18:10;;;;;;;16.57;11.83;;;;;;;;;;5113940;28;20264;-87
2022/12/22 16:20:39;;;;;;;16.70;10.27;;;;;;;;;;5099702;28;20730;-86
2022/12/22 16:23:10;;;;;;;12.53;9.27;;;;;;;;;;5113225;28;20206;-86
2022/12/22 16:25:44;;;;;;;13.27;10.07;;;;;;;;;;5099665;28;20199;-87
2022/12/22 16:28:14;;;;;;;13.67;10.47;;;;;;;;;;5112659;28;20191;-87
2022/12/22 16:30:41;;;;;;;20.07;15.77;;;;;;;;;;5113045;28;20203;-92
2022/12/22 16:33:10;;;;;;;12.53;9.50;;;;;;;;;;5113070;28;20206;-87
2022/12/22 16:35:37;;;;;;;18.93;13.17;;;;;;;;;;5100083;28;20204;-87
2022/12/22 16:38:04;;;;;;;10.70;8.43;;;;;;;;;;5112179;28;20617;-86
2022/12/22 16:40:32;;;;;;;13.30;9.90;;;;;;;;;;5105342;28;20212;-90
2022/12/22 16:43:02;;;;;;;9.40;7.63;;;;;;;;;;5106914;28;20212;-86
2022/12/22 16:45:31;;;;;;;12.77;7.97;;;;;;;;;;5112718;27;20212;-87
2022/12/22 16:48:06;;;;;;;12.93;11.07;;;;;;;;;;5100559;28;20300;-87
2022/12/22 16:50:33;;;;;;;12.23;10.03;;;;;;;;;;5108318;28;20263;-86
2022/12/22 16:53:01;;;;;;;23.03;14.97;;;;;;;;;;5104749;28;20252;-86
2022/12/22 16:55:29;;;;;;;45.90;27.10;;;;;;;;;;5097817;28;20197;-85
2022/12/22 16:57:58;;;;;;;100.67;84.40;;;;;;;;;;5111712;28;20203;-86
2022/12/22 17:00:28;;;;;;;52.83;42.20;;;;;;;;;;5111637;28;20195;-86
2022/12/22 17:02:58;;;;;;;19.47;13.17;;;;;;;;;;5112206;28;20210;-86
2022/12/22 17:05:28;;;;;;;15.03;11.73;;;;;;;;;;5110639;28;20689;-85
2022/12/22 17:07:59;;;;;;;17.27;10.83;;;;;;;;;;5111874;28;20254;-89
2022/12/22 17:10:26;;;;;;;7.80;6.00;;;;;;;;;;5111207;28;20218;-85
2022/12/22 17:12:56;;;;;;;9.40;6.67;;;;;;;;;;5095454;28;20196;-85
2022/12/22 17:15:26;;;;;;;6.40;5.37;;;;;;;;;;5101386;28;20635;-85
2022/12/22 17:17:54;;;;;;;20.10;14.60;;;;;;;;;;5110156;28;20200;-85
2022/12/22 17:20:24;;;;;;;12.07;9.80;;;;;;;;;;5099875;28;20683;-84
2022/12/22 17:22:54;;;;;;;9.30;6.60;;;;;;;;;;5110070;28;20253;-85
2022/12/22 17:25:24;;;;;;;24.47;18.20;;;;;;;;;;5110789;28;20643;-84
2022/12/22 17:27:52;;;;;;;145.80;77.03;;;;;;;;;;5110060;28;20215;-84
2022/12/22 17:30:32;;;;;;;125.67;72.47;;;;;;;;;;5109848;28;20241;-84
2022/12/22 17:33:00;;;;;;;98.60;59.97;;;;;;;;;;5087295;28;20236;-85
2022/12/22 17:35:28;;;;;;;39.97;21.67;;;;;;;;;;5088188;28;20203;-84
2022/12/22 17:37:55;;;;;;;21.30;14.33;;;;;;;;;;5112115;28;20207;-85
2022/12/22 17:40:25;;;;;;;17.83;12.43;;;;;;;;;;5110402;28;20260;-84
2022/12/22 17:42:52;;;;;;;25.80;16.57;;;;;;;;;;5102867;28;20235;-87
2022/12/22 17:45:20;;;;;;;28.47;19.20;;;;;;;;;;5109712;28;20214;-85
2022/12/22 17:47:47;;;;;;;31.37;23.73;;;;;;;;;;5110160;28;20288;-85
2022/12/22 17:50:20;;;;;;;38.73;28.50;;;;;;;;;;5080907;28;20650;-85
2022/12/22 17:52:47;;;;;;;63.00;37.83;;;;;;;;;;5111951;28;20199;-85
2022/12/22 17:55:20;;;;;;;24.23;17.63;;;;;;;;;;5105598;28;20675;-86
2022/12/22 17:57:47;;;;;;;21.37;14.90;;;;;;;;;;5099674;28;20295;-89
2022/12/22 18:00:20;;;;;;;26.67;17.33;;;;;;;;;;5100958;28;20584;-86
2022/12/22 18:02:47;;;;;;;15.97;9.90;;;;;;;;;;5115761;28;20768;-85
2022/12/22 18:05:18;;;;;;;11.33;9.63;;;;;;;;;;5109852;28;20231;-85
2022/12/22 18:07:46;;;;;;;12.17;9.53;;;;;;;;;;5107814;28;20234;-85
2022/12/22 18:10:25;;;;;;;59.27;30.63;;;;;;;;;;5097644;28;20671;-86
2022/12/22 18:12:54;;;;;;;51.60;36.27;;;;;;;;;;5090553;28;20203;-85
2022/12/22 18:15:23;;;;;;;49.60;30.50;;;;;;;;;;5090878;28;20274;-85
2022/12/22 18:17:50;;;;;;;41.70;29.10;;;;;;;;;;5107300;28;20245;-85
2022/12/22 18:20:23;;;;;;;23.67;16.80;;;;;;;;;;5100436;28;20204;-85
2022/12/22 18:22:53;;;;;;;37.40;26.40;;;;;;;;;;5100464;28;20294;-88
2022/12/22 18:25:22;;;;;;;79.83;50.73;;;;;;;;;;5101058;28;20195;-84